sensor_id;sensor_type;location;lat;lon;timestamp;pressure;altitude;pressure_sealevel;temperature;humidity
52291;BME280;39663;45.432;28.050;2022-07-21T00:09:07;101049.82;;;28.39;24.19
52291;BME280;39663;45.432;28.050;2022-07-21T00:09:38;101053.40;;;28.73;24.29
52291;BME280;39663;45.432;28.050;2022-07-21T00:10:10;101054.90;;;28.73;24.06
52291;BME280;39663;45.432;28.050;2022-07-21T00:10:42;101053.71;;;28.20;24.08
52291;BME280;39663;45.432;28.050;2022-07-21T00:11:13;101055.19;;;28.23;24.48
52291;BME280;39663;45.432;28.050;2022-07-21T00:11:45;101052.28;;;28.25;24.46
52291;BME280;39663;45.432;28.050;2022-07-21T00:12:16;101052.62;;;28.48;24.24
52291;BME280;39663;45.432;28.050;2022-07-21T00:12:48;101051.83;;;28.43;24.31
52291;BME280;39663;45.432;28.050;2022-07-21T00:13:20;101049.79;;;28.26;24.34
52291;BME280;39663;45.432;28.050;2022-07-21T00:13:51;101050.13;;;28.03;24.30
52291;BME280;39663;45.432;28.050;2022-07-21T00:14:22;101052.60;;;28.20;24.27
52291;BME280;39663;45.432;28.050;2022-07-21T00:14:54;101051.52;;;28.31;24.18
52291;BME280;39663;45.432;28.050;2022-07-21T00:15:26;101052.22;;;28.40;24.19
52291;BME280;39663;45.432;28.050;2022-07-21T00:15:59;101047.42;;;28.84;24.07
52291;BME280;39663;45.432;28.050;2022-07-21T00:16:30;101050.14;;;28.58;24.07
52291;BME280;39663;45.432;28.050;2022-07-21T00:17:02;101046.34;;;29.00;23.98
52291;BME280;39663;45.432;28.050;2022-07-21T00:17:33;101049.85;;;28.81;23.89
52291;BME280;39663;45.432;28.050;2022-07-21T00:18:05;101046.34;;;28.86;23.93
52291;BME280;39663;45.432;28.050;2022-07-21T00:18:36;101047.92;;;29.08;23.94
52291;BME280;39663;45.432;28.050;2022-07-21T00:19:09;101048.63;;;28.80;24.11
52291;BME280;39663;45.432;28.050;2022-07-21T00:19:40;101050.76;;;28.23;24.46
52291;BME280;39663;45.432;28.050;2022-07-21T00:20:13;101048.44;;;28.06;24.44
52291;BME280;39663;45.432;28.050;2022-07-21T00:20:45;101047.14;;;28.88;24.24
52291;BME280;39663;45.432;28.050;2022-07-21T00:21:17;101047.44;;;28.80;24.03
52291;BME280;39663;45.432;28.050;2022-07-21T00:21:48;101048.74;;;28.87;24.10
52291;BME280;39663;45.432;28.050;2022-07-21T00:22:19;101045.38;;;28.56;24.07
52291;BME280;39663;45.432;28.050;2022-07-21T00:22:51;101044.99;;;28.54;24.16
52291;BME280;39663;45.432;28.050;2022-07-21T00:23:22;101045.15;;;28.38;24.27
52291;BME280;39663;45.432;28.050;2022-07-21T00:23:54;101042.62;;;28.72;24.19
52291;BME280;39663;45.432;28.050;2022-07-21T00:24:25;101046.36;;;28.54;24.14
52291;BME280;39663;45.432;28.050;2022-07-21T00:24:57;101051.06;;;28.34;24.32
52291;BME280;39663;45.432;28.050;2022-07-21T00:25:29;101045.32;;;28.47;24.28
52291;BME280;39663;45.432;28.050;2022-07-21T00:26:01;101045.37;;;28.43;24.26
52291;BME280;39663;45.432;28.050;2022-07-21T00:26:32;101048.89;;;28.35;24.40
52291;BME280;39663;45.432;28.050;2022-07-21T00:27:04;101051.75;;;28.32;24.48
52291;BME280;39663;45.432;28.050;2022-07-21T00:27:35;101050.77;;;28.08;24.52
52291;BME280;39663;45.432;28.050;2022-07-21T00:28:07;101053.04;;;27.78;24.77
52291;BME280;39663;45.432;28.050;2022-07-21T00:28:39;101053.22;;;27.52;25.21
52291;BME280;39663;45.432;28.050;2022-07-21T00:29:10;101053.07;;;27.63;25.00
52291;BME280;39663;45.432;28.050;2022-07-21T00:29:42;101053.22;;;27.77;25.06
52291;BME280;39663;45.432;28.050;2022-07-21T00:30:14;101052.96;;;27.75;24.94
52291;BME280;39663;45.432;28.050;2022-07-21T00:30:46;101051.68;;;27.82;25.13
52291;BME280;39663;45.432;28.050;2022-07-21T00:31:18;101052.95;;;27.43;25.25
52291;BME280;39663;45.432;28.050;2022-07-21T00:31:50;101053.39;;;27.62;25.16
52291;BME280;39663;45.432;28.050;2022-07-21T00:32:21;101054.70;;;27.96;25.23
52291;BME280;39663;45.432;28.050;2022-07-21T00:32:53;101055.04;;;27.82;25.24
52291;BME280;39663;45.432;28.050;2022-07-21T00:33:24;101050.06;;;27.93;25.11
52291;BME280;39663;45.432;28.050;2022-07-21T00:33:55;101049.09;;;27.94;25.20
52291;BME280;39663;45.432;28.050;2022-07-21T00:34:27;101053.20;;;28.17;25.35
52291;BME280;39663;45.432;28.050;2022-07-21T00:34:58;101050.08;;;28.11;25.15
52291;BME280;39663;45.432;28.050;2022-07-21T00:35:30;101051.13;;;27.77;25.21
52291;BME280;39663;45.432;28.050;2022-07-21T00:36:02;101051.54;;;28.16;25.14
52291;BME280;39663;45.432;28.050;2022-07-21T00:36:33;101052.82;;;28.19;25.06
52291;BME280;39663;45.432;28.050;2022-07-21T00:37:04;101053.28;;;27.94;24.95
52291;BME280;39663;45.432;28.050;2022-07-21T00:37:36;101054.06;;;28.26;25.06
52291;BME280;39663;45.432;28.050;2022-07-21T00:38:08;101054.35;;;27.62;25.24
52291;BME280;39663;45.432;28.050;2022-07-21T00:38:39;101054.96;;;28.04;25.31
52291;BME280;39663;45.432;28.050;2022-07-21T00:39:11;101053.17;;;28.27;25.24
52291;BME280;39663;45.432;28.050;2022-07-21T00:39:42;101049.98;;;28.49;25.12
52291;BME280;39663;45.432;28.050;2022-07-21T00:40:13;101052.39;;;28.44;25.07
52291;BME280;39663;45.432;28.050;2022-07-21T00:40:45;101051.08;;;28.29;25.01
52291;BME280;39663;45.432;28.050;2022-07-21T00:41:17;101049.04;;;28.55;24.89
52291;BME280;39663;45.432;28.050;2022-07-21T00:41:48;101049.74;;;28.36;25.00
52291;BME280;39663;45.432;28.050;2022-07-21T00:42:22;101048.93;;;28.69;24.95
52291;BME280;39663;45.432;28.050;2022-07-21T00:42:54;101050.17;;;28.67;24.71
52291;BME280;39663;45.432;28.050;2022-07-21T00:43:25;101048.50;;;28.35;24.69
52291;BME280;39663;45.432;28.050;2022-07-21T00:43:57;101048.77;;;28.55;24.74
52291;BME280;39663;45.432;28.050;2022-07-21T00:44:28;101050.90;;;28.24;24.71
52291;BME280;39663;45.432;28.050;2022-07-21T00:45:01;101048.72;;;28.22;24.81
52291;BME280;39663;45.432;28.050;2022-07-21T00:45:32;101048.09;;;27.99;25.08
52291;BME280;39663;45.432;28.050;2022-07-21T00:46:04;101048.23;;;27.93;24.94
52291;BME280;39663;45.432;28.050;2022-07-21T00:46:36;101051.49;;;28.26;24.83
52291;BME280;39663;45.432;28.050;2022-07-21T00:47:07;101050.42;;;28.28;24.93
52291;BME280;39663;45.432;28.050;2022-07-21T00:47:39;101050.32;;;28.35;24.93
52291;BME280;39663;45.432;28.050;2022-07-21T00:48:10;101050.57;;;27.67;25.29
52291;BME280;39663;45.432;28.050;2022-07-21T00:48:42;101053.89;;;27.45;25.43
52291;BME280;39663;45.432;28.050;2022-07-21T00:49:13;101051.81;;;27.16;25.82
52291;BME280;39663;45.432;28.050;2022-07-21T00:49:45;101053.73;;;27.44;25.75
52291;BME280;39663;45.432;28.050;2022-07-21T00:50:19;101054.15;;;27.48;25.79
52291;BME280;39663;45.432;28.050;2022-07-21T00:50:50;101052.31;;;26.75;25.99
52291;BME280;39663;45.432;28.050;2022-07-21T00:51:22;101053.24;;;27.70;25.58
52291;BME280;39663;45.432;28.050;2022-07-21T00:51:53;101051.63;;;27.80;25.41
52291;BME280;39663;45.432;28.050;2022-07-21T00:52:25;101047.68;;;28.05;25.10
52291;BME280;39663;45.432;28.050;2022-07-21T00:52:57;101048.81;;;28.09;25.10
52291;BME280;39663;45.432;28.050;2022-07-21T00:53:28;101047.74;;;28.27;25.03
52291;BME280;39663;45.432;28.050;2022-07-21T00:54:00;101050.44;;;28.25;25.06
52291;BME280;39663;45.432;28.050;2022-07-21T00:54:32;101050.20;;;27.93;25.21
52291;BME280;39663;45.432;28.050;2022-07-21T00:55:04;101051.85;;;27.85;25.25
52291;BME280;39663;45.432;28.050;2022-07-21T00:55:36;101051.05;;;27.91;25.23
52291;BME280;39663;45.432;28.050;2022-07-21T00:56:07;101052.70;;;27.63;25.36
52291;BME280;39663;45.432;28.050;2022-07-21T00:56:39;101054.19;;;27.65;25.64
52291;BME280;39663;45.432;28.050;2022-07-21T00:57:12;101051.15;;;27.29;25.82
52291;BME280;39663;45.432;28.050;2022-07-21T00:57:44;101055.55;;;27.28;26.03
52291;BME280;39663;45.432;28.050;2022-07-21T00:58:15;101054.32;;;26.90;26.14
52291;BME280;39663;45.432;28.050;2022-07-21T00:58:47;101051.85;;;27.00;26.15
52291;BME280;39663;45.432;28.050;2022-07-21T00:59:18;101052.78;;;27.05;26.35
52291;BME280;39663;45.432;28.050;2022-07-21T00:59:50;101053.85;;;26.93;26.46
52291;BME280;39663;45.432;28.050;2022-07-21T01:00:24;101052.63;;;26.96;26.31
52291;BME280;39663;45.432;28.050;2022-07-21T01:01:06;101052.44;;;27.07;26.14
52291;BME280;39663;45.432;28.050;2022-07-21T01:01:38;101052.26;;;27.21;26.06
52291;BME280;39663;45.432;28.050;2022-07-21T01:02:10;101053.66;;;27.20;26.19
52291;BME280;39663;45.432;28.050;2022-07-21T01:02:42;101053.60;;;27.40;26.05
52291;BME280;39663;45.432;28.050;2022-07-21T01:03:14;101053.91;;;27.41;25.94
52291;BME280;39663;45.432;28.050;2022-07-21T01:03:45;101052.05;;;27.53;25.88
52291;BME280;39663;45.432;28.050;2022-07-21T01:04:17;101054.27;;;27.44;25.98
52291;BME280;39663;45.432;28.050;2022-07-21T01:04:48;101053.82;;;27.22;26.22
52291;BME280;39663;45.432;28.050;2022-07-21T01:05:20;101057.08;;;27.10;26.38
52291;BME280;39663;45.432;28.050;2022-07-21T01:05:51;101056.94;;;27.36;26.15
52291;BME280;39663;45.432;28.050;2022-07-21T01:06:24;101055.66;;;27.20;26.24
52291;BME280;39663;45.432;28.050;2022-07-21T01:06:56;101057.21;;;27.45;26.07
52291;BME280;39663;45.432;28.050;2022-07-21T01:07:28;101056.65;;;27.40;26.19
52291;BME280;39663;45.432;28.050;2022-07-21T01:08:00;101055.46;;;27.54;26.02
52291;BME280;39663;45.432;28.050;2022-07-21T01:08:32;101055.51;;;27.69;26.09
52291;BME280;39663;45.432;28.050;2022-07-21T01:09:03;101055.76;;;27.46;26.09
52291;BME280;39663;45.432;28.050;2022-07-21T01:09:35;101054.19;;;27.40;26.11
52291;BME280;39663;45.432;28.050;2022-07-21T01:10:08;101053.83;;;27.57;26.01
52291;BME280;39663;45.432;28.050;2022-07-21T01:10:40;101053.36;;;27.40;25.99
52291;BME280;39663;45.432;28.050;2022-07-21T01:11:12;101052.87;;;27.41;25.97
52291;BME280;39663;45.432;28.050;2022-07-21T01:11:44;101054.61;;;26.92;26.41
52291;BME280;39663;45.432;28.050;2022-07-21T01:12:15;101054.26;;;26.95;26.43
52291;BME280;39663;45.432;28.050;2022-07-21T01:12:47;101051.94;;;27.19;26.27
52291;BME280;39663;45.432;28.050;2022-07-21T01:13:19;101051.92;;;27.20;26.18
52291;BME280;39663;45.432;28.050;2022-07-21T01:13:50;101054.73;;;27.47;26.06
52291;BME280;39663;45.432;28.050;2022-07-21T01:14:22;101053.11;;;27.09;26.16
52291;BME280;39663;45.432;28.050;2022-07-21T01:14:53;101052.44;;;27.18;26.10
52291;BME280;39663;45.432;28.050;2022-07-21T01:15:25;101053.16;;;27.20;26.04
52291;BME280;39663;45.432;28.050;2022-07-21T01:15:56;101052.97;;;26.99;26.16
52291;BME280;39663;45.432;28.050;2022-07-21T01:16:28;101051.73;;;26.91;26.14
52291;BME280;39663;45.432;28.050;2022-07-21T01:17:01;101051.44;;;26.78;26.29
52291;BME280;39663;45.432;28.050;2022-07-21T01:17:34;101051.96;;;26.68;26.55
52291;BME280;39663;45.432;28.050;2022-07-21T01:18:06;101051.09;;;26.68;26.43
52291;BME280;39663;45.432;28.050;2022-07-21T01:18:38;101053.04;;;26.88;26.23
52291;BME280;39663;45.432;28.050;2022-07-21T01:19:10;101053.13;;;26.37;26.61
52291;BME280;39663;45.432;28.050;2022-07-21T01:19:41;101052.92;;;26.72;26.47
52291;BME280;39663;45.432;28.050;2022-07-21T01:20:17;101053.48;;;26.34;26.48
52291;BME280;39663;45.432;28.050;2022-07-21T01:20:52;101050.85;;;26.68;26.38
52291;BME280;39663;45.432;28.050;2022-07-21T01:21:29;101054.58;;;26.50;26.41
52291;BME280;39663;45.432;28.050;2022-07-21T01:22:01;101054.76;;;27.04;26.01
52291;BME280;39663;45.432;28.050;2022-07-21T01:22:35;101053.57;;;26.86;26.07
52291;BME280;39663;45.432;28.050;2022-07-21T01:23:07;101055.85;;;27.02;25.87
52291;BME280;39663;45.432;28.050;2022-07-21T01:23:39;101053.74;;;26.88;25.87
52291;BME280;39663;45.432;28.050;2022-07-21T01:24:11;101055.49;;;26.79;26.07
52291;BME280;39663;45.432;28.050;2022-07-21T01:24:42;101054.97;;;26.90;25.97
52291;BME280;39663;45.432;28.050;2022-07-21T01:25:15;101055.54;;;26.93;25.84
52291;BME280;39663;45.432;28.050;2022-07-21T01:25:48;101056.14;;;26.42;26.30
52291;BME280;39663;45.432;28.050;2022-07-21T01:26:19;101054.54;;;26.60;26.23
52291;BME280;39663;45.432;28.050;2022-07-21T01:26:52;101057.65;;;26.78;25.96
52291;BME280;39663;45.432;28.050;2022-07-21T01:27:25;101058.16;;;27.31;25.85
52291;BME280;39663;45.432;28.050;2022-07-21T01:27:56;101059.97;;;27.07;25.80
52291;BME280;39663;45.432;28.050;2022-07-21T01:28:28;101059.48;;;27.05;25.80
52291;BME280;39663;45.432;28.050;2022-07-21T01:28:59;101058.18;;;26.65;26.18
52291;BME280;39663;45.432;28.050;2022-07-21T01:29:30;101058.58;;;25.85;27.24
52291;BME280;39663;45.432;28.050;2022-07-21T01:30:04;101059.41;;;26.24;26.80
52291;BME280;39663;45.432;28.050;2022-07-21T01:30:36;101059.34;;;26.57;26.61
52291;BME280;39663;45.432;28.050;2022-07-21T01:31:07;101059.67;;;26.93;26.23
52291;BME280;39663;45.432;28.050;2022-07-21T01:31:40;101058.20;;;27.18;26.09
52291;BME280;39663;45.432;28.050;2022-07-21T01:32:12;101062.35;;;27.24;26.01
52291;BME280;39663;45.432;28.050;2022-07-21T01:32:44;101060.64;;;27.22;25.78
52291;BME280;39663;45.432;28.050;2022-07-21T01:33:16;101060.38;;;26.23;26.95
52291;BME280;39663;45.432;28.050;2022-07-21T01:33:48;101061.53;;;25.99;27.28
52291;BME280;39663;45.432;28.050;2022-07-21T01:34:20;101059.55;;;26.41;26.84
52291;BME280;39663;45.432;28.050;2022-07-21T01:34:52;101057.98;;;26.31;26.85
52291;BME280;39663;45.432;28.050;2022-07-21T01:35:23;101059.18;;;26.37;26.93
52291;BME280;39663;45.432;28.050;2022-07-21T01:35:54;101058.57;;;26.37;26.89
52291;BME280;39663;45.432;28.050;2022-07-21T01:36:26;101059.06;;;26.50;26.88
52291;BME280;39663;45.432;28.050;2022-07-21T01:36:57;101057.14;;;26.50;26.79
52291;BME280;39663;45.432;28.050;2022-07-21T01:37:31;101059.58;;;26.51;26.84
52291;BME280;39663;45.432;28.050;2022-07-21T01:38:03;101059.59;;;26.45;26.98
52291;BME280;39663;45.432;28.050;2022-07-21T01:38:34;101062.37;;;25.90;27.37
52291;BME280;39663;45.432;28.050;2022-07-21T01:39:06;101061.77;;;26.14;27.33
52291;BME280;39663;45.432;28.050;2022-07-21T01:39:38;101061.14;;;26.48;27.25
52291;BME280;39663;45.432;28.050;2022-07-21T01:40:11;101062.61;;;26.52;27.09
52291;BME280;39663;45.432;28.050;2022-07-21T01:40:43;101061.16;;;26.56;26.80
52291;BME280;39663;45.432;28.050;2022-07-21T01:41:14;101061.56;;;26.63;26.68
52291;BME280;39663;45.432;28.050;2022-07-21T01:41:46;101063.06;;;26.76;26.63
52291;BME280;39663;45.432;28.050;2022-07-21T01:42:17;101065.46;;;26.43;26.79
52291;BME280;39663;45.432;28.050;2022-07-21T01:42:49;101063.43;;;26.54;26.77
52291;BME280;39663;45.432;28.050;2022-07-21T01:43:20;101065.03;;;26.39;26.80
52291;BME280;39663;45.432;28.050;2022-07-21T01:43:52;101065.48;;;26.43;26.77
52291;BME280;39663;45.432;28.050;2022-07-21T01:44:23;101067.96;;;26.11;27.09
52291;BME280;39663;45.432;28.050;2022-07-21T01:44:54;101066.39;;;25.83;27.35
52291;BME280;39663;45.432;28.050;2022-07-21T01:45:27;101067.13;;;25.79;27.30
52291;BME280;39663;45.432;28.050;2022-07-21T01:45:58;101068.38;;;26.07;27.08
52291;BME280;39663;45.432;28.050;2022-07-21T01:46:33;101069.66;;;26.10;26.88
52291;BME280;39663;45.432;28.050;2022-07-21T01:47:05;101071.22;;;26.34;26.77
52291;BME280;39663;45.432;28.050;2022-07-21T01:47:37;101072.33;;;26.42;26.69
52291;BME280;39663;45.432;28.050;2022-07-21T01:48:08;101073.99;;;26.36;26.66
52291;BME280;39663;45.432;28.050;2022-07-21T01:48:42;101072.74;;;26.65;26.42
52291;BME280;39663;45.432;28.050;2022-07-21T01:49:16;101073.92;;;27.05;26.38
52291;BME280;39663;45.432;28.050;2022-07-21T01:49:47;101075.99;;;26.87;26.12
52291;BME280;39663;45.432;28.050;2022-07-21T01:50:19;101076.51;;;27.26;25.96
52291;BME280;39663;45.432;28.050;2022-07-21T01:50:50;101076.82;;;27.17;25.93
52291;BME280;39663;45.432;28.050;2022-07-21T01:51:21;101079.82;;;27.08;25.80
52291;BME280;39663;45.432;28.050;2022-07-21T01:51:53;101078.85;;;27.17;25.86
52291;BME280;39663;45.432;28.050;2022-07-21T01:52:24;101077.14;;;26.77;26.13
52291;BME280;39663;45.432;28.050;2022-07-21T01:52:57;101077.56;;;26.53;26.15
52291;BME280;39663;45.432;28.050;2022-07-21T01:53:29;101079.93;;;26.30;26.55
52291;BME280;39663;45.432;28.050;2022-07-21T01:54:00;101079.23;;;26.30;26.45
52291;BME280;39663;45.432;28.050;2022-07-21T01:54:31;101081.55;;;26.20;26.44
52291;BME280;39663;45.432;28.050;2022-07-21T01:55:03;101081.90;;;26.60;26.29
52291;BME280;39663;45.432;28.050;2022-07-21T01:55:35;101082.55;;;26.77;26.02
52291;BME280;39663;45.432;28.050;2022-07-21T01:56:07;101082.81;;;27.02;25.97
52291;BME280;39663;45.432;28.050;2022-07-21T01:56:39;101083.70;;;26.50;26.14
52291;BME280;39663;45.432;28.050;2022-07-21T01:57:11;101083.63;;;26.79;26.08
52291;BME280;39663;45.432;28.050;2022-07-21T01:57:42;101081.25;;;26.73;26.08
52291;BME280;39663;45.432;28.050;2022-07-21T01:58:14;101083.73;;;26.98;25.94
52291;BME280;39663;45.432;28.050;2022-07-21T01:58:45;101085.79;;;25.92;26.75
52291;BME280;39663;45.432;28.050;2022-07-21T01:59:17;101083.63;;;26.58;26.54
52291;BME280;39663;45.432;28.050;2022-07-21T01:59:48;101084.63;;;26.75;26.21
52291;BME280;39663;45.432;28.050;2022-07-21T02:00:20;101085.31;;;27.06;26.03
52291;BME280;39663;45.432;28.050;2022-07-21T02:00:51;101085.44;;;26.79;26.15
52291;BME280;39663;45.432;28.050;2022-07-21T02:01:24;101086.33;;;26.64;26.03
52291;BME280;39663;45.432;28.050;2022-07-21T02:01:56;101088.52;;;26.78;26.10
52291;BME280;39663;45.432;28.050;2022-07-21T02:02:28;101087.37;;;26.76;25.99
52291;BME280;39663;45.432;28.050;2022-07-21T02:03:00;101088.75;;;26.87;25.93
52291;BME280;39663;45.432;28.050;2022-07-21T02:03:31;101090.58;;;27.02;25.80
52291;BME280;39663;45.432;28.050;2022-07-21T02:04:04;101089.25;;;27.12;25.73
52291;BME280;39663;45.432;28.050;2022-07-21T02:04:36;101086.50;;;27.16;25.77
52291;BME280;39663;45.432;28.050;2022-07-21T02:05:08;101089.44;;;27.34;25.71
52291;BME280;39663;45.432;28.050;2022-07-21T02:05:39;101090.31;;;27.16;25.83
52291;BME280;39663;45.432;28.050;2022-07-21T02:06:11;101087.27;;;27.06;25.94
52291;BME280;39663;45.432;28.050;2022-07-21T02:06:43;101087.36;;;26.66;26.13
52291;BME280;39663;45.432;28.050;2022-07-21T02:07:15;101086.92;;;26.53;26.41
52291;BME280;39663;45.432;28.050;2022-07-21T02:07:46;101086.76;;;26.42;26.39
52291;BME280;39663;45.432;28.050;2022-07-21T02:08:18;101086.45;;;26.66;26.27
52291;BME280;39663;45.432;28.050;2022-07-21T02:08:49;101086.89;;;26.69;26.17
52291;BME280;39663;45.432;28.050;2022-07-21T02:09:21;101087.52;;;27.17;26.16
52291;BME280;39663;45.432;28.050;2022-07-21T02:09:52;101086.41;;;27.26;26.06
52291;BME280;39663;45.432;28.050;2022-07-21T02:10:23;101089.20;;;27.38;25.88
52291;BME280;39663;45.432;28.050;2022-07-21T02:10:55;101088.70;;;27.50;25.66
52291;BME280;39663;45.432;28.050;2022-07-21T02:11:27;101093.07;;;27.37;25.69
52291;BME280;39663;45.432;28.050;2022-07-21T02:11:58;101092.29;;;27.51;25.71
52291;BME280;39663;45.432;28.050;2022-07-21T02:12:29;101091.91;;;27.28;25.95
52291;BME280;39663;45.432;28.050;2022-07-21T02:13:01;101092.81;;;27.02;26.30
52291;BME280;39663;45.432;28.050;2022-07-21T02:13:32;101090.34;;;26.26;26.71
52291;BME280;39663;45.432;28.050;2022-07-21T02:14:04;101091.52;;;26.54;26.65
52291;BME280;39663;45.432;28.050;2022-07-21T02:14:35;101093.32;;;26.69;26.70
52291;BME280;39663;45.432;28.050;2022-07-21T02:15:08;101092.15;;;26.73;26.67
52291;BME280;39663;45.432;28.050;2022-07-21T02:15:40;101092.88;;;26.51;26.96
52291;BME280;39663;45.432;28.050;2022-07-21T02:16:12;101094.34;;;26.94;26.77
52291;BME280;39663;45.432;28.050;2022-07-21T02:16:44;101095.14;;;26.66;26.82
52291;BME280;39663;45.432;28.050;2022-07-21T02:17:15;101096.35;;;26.57;26.79
52291;BME280;39663;45.432;28.050;2022-07-21T02:17:46;101095.03;;;26.84;26.73
52291;BME280;39663;45.432;28.050;2022-07-21T02:18:18;101097.65;;;26.70;26.80
52291;BME280;39663;45.432;28.050;2022-07-21T02:18:49;101097.81;;;26.88;26.67
52291;BME280;39663;45.432;28.050;2022-07-21T02:19:21;101099.71;;;26.79;26.85
52291;BME280;39663;45.432;28.050;2022-07-21T02:19:52;101099.44;;;26.62;27.03
52291;BME280;39663;45.432;28.050;2022-07-21T02:20:24;101100.14;;;26.28;27.23
52291;BME280;39663;45.432;28.050;2022-07-21T02:20:56;101101.29;;;26.45;27.03
52291;BME280;39663;45.432;28.050;2022-07-21T02:21:28;101102.80;;;26.80;26.88
52291;BME280;39663;45.432;28.050;2022-07-21T02:21:59;101102.34;;;26.91;26.81
52291;BME280;39663;45.432;28.050;2022-07-21T02:22:30;101102.65;;;26.95;26.90
52291;BME280;39663;45.432;28.050;2022-07-21T02:23:02;101103.19;;;27.13;26.93
52291;BME280;39663;45.432;28.050;2022-07-21T02:23:34;101103.58;;;26.68;26.86
52291;BME280;39663;45.432;28.050;2022-07-21T02:24:06;101106.12;;;26.63;27.00
52291;BME280;39663;45.432;28.050;2022-07-21T02:24:38;101107.07;;;26.49;27.22
52291;BME280;39663;45.432;28.050;2022-07-21T02:25:09;101107.88;;;26.63;27.11
52291;BME280;39663;45.432;28.050;2022-07-21T02:25:41;101104.81;;;26.56;27.07
52291;BME280;39663;45.432;28.050;2022-07-21T02:26:12;101106.85;;;26.96;27.01
52291;BME280;39663;45.432;28.050;2022-07-21T02:26:44;101109.06;;;26.27;27.48
52291;BME280;39663;45.432;28.050;2022-07-21T02:27:15;101110.65;;;26.36;27.35
52291;BME280;39663;45.432;28.050;2022-07-21T02:27:47;101110.80;;;26.50;27.16
52291;BME280;39663;45.432;28.050;2022-07-21T02:28:19;101111.54;;;26.42;27.35
52291;BME280;39663;45.432;28.050;2022-07-21T02:28:50;101112.36;;;26.34;27.36
52291;BME280;39663;45.432;28.050;2022-07-21T02:29:22;101113.10;;;26.37;27.42
52291;BME280;39663;45.432;28.050;2022-07-21T02:29:53;101112.68;;;26.67;27.26
52291;BME280;39663;45.432;28.050;2022-07-21T02:30:25;101114.13;;;26.73;27.11
52291;BME280;39663;45.432;28.050;2022-07-21T02:30:56;101116.77;;;26.25;27.34
52291;BME280;39663;45.432;28.050;2022-07-21T02:31:28;101116.32;;;26.22;27.51
52291;BME280;39663;45.432;28.050;2022-07-21T02:31:59;101115.83;;;26.04;27.96
52291;BME280;39663;45.432;28.050;2022-07-21T02:32:30;101120.53;;;25.43;28.46
52291;BME280;39663;45.432;28.050;2022-07-21T02:33:02;101122.73;;;24.78;29.13
52291;BME280;39663;45.432;28.050;2022-07-21T02:33:34;101123.30;;;25.00;29.24
52291;BME280;39663;45.432;28.050;2022-07-21T02:34:05;101123.81;;;24.84;29.31
52291;BME280;39663;45.432;28.050;2022-07-21T02:34:37;101121.32;;;25.07;29.11
52291;BME280;39663;45.432;28.050;2022-07-21T02:35:09;101125.69;;;24.83;29.37
52291;BME280;39663;45.432;28.050;2022-07-21T02:35:41;101125.24;;;24.45;30.13
52291;BME280;39663;45.432;28.050;2022-07-21T02:36:12;101126.93;;;24.85;29.76
52291;BME280;39663;45.432;28.050;2022-07-21T02:36:44;101125.52;;;24.92;29.75
52291;BME280;39663;45.432;28.050;2022-07-21T02:37:15;101127.30;;;24.98;29.77
52291;BME280;39663;45.432;28.050;2022-07-21T02:37:46;101125.92;;;24.59;30.52
52291;BME280;39663;45.432;28.050;2022-07-21T02:38:18;101127.71;;;24.66;30.74
52291;BME280;39663;45.432;28.050;2022-07-21T02:38:49;101126.84;;;24.66;31.02
52291;BME280;39663;45.432;28.050;2022-07-21T02:39:20;101129.92;;;25.06;30.64
52291;BME280;39663;45.432;28.050;2022-07-21T02:39:52;101129.58;;;24.88;31.16
52291;BME280;39663;45.432;28.050;2022-07-21T02:40:23;101130.70;;;25.08;30.96
52291;BME280;39663;45.432;28.050;2022-07-21T02:40:55;101129.72;;;25.29;31.09
52291;BME280;39663;45.432;28.050;2022-07-21T02:41:26;101125.02;;;25.25;31.06
52291;BME280;39663;45.432;28.050;2022-07-21T02:41:58;101131.17;;;24.90;31.46
52291;BME280;39663;45.432;28.050;2022-07-21T02:42:29;101130.63;;;24.42;32.14
52291;BME280;39663;45.432;28.050;2022-07-21T02:43:01;101132.66;;;24.27;32.87
52291;BME280;39663;45.432;28.050;2022-07-21T02:43:32;101130.67;;;24.32;32.48
52291;BME280;39663;45.432;28.050;2022-07-21T02:44:04;101129.79;;;24.64;32.61
52291;BME280;39663;45.432;28.050;2022-07-21T02:44:35;101129.27;;;24.68;32.16
52291;BME280;39663;45.432;28.050;2022-07-21T02:45:09;101129.28;;;24.93;32.03
52291;BME280;39663;45.432;28.050;2022-07-21T02:45:41;101131.80;;;24.22;33.05
52291;BME280;39663;45.432;28.050;2022-07-21T02:46:12;101130.94;;;23.72;33.39
52291;BME280;39663;45.432;28.050;2022-07-21T02:46:44;101129.82;;;24.25;33.17
52291;BME280;39663;45.432;28.050;2022-07-21T02:47:15;101128.58;;;23.94;32.96
52291;BME280;39663;45.432;28.050;2022-07-21T02:47:49;101129.59;;;24.62;32.75
52291;BME280;39663;45.432;28.050;2022-07-21T02:48:21;101131.37;;;24.10;33.40
52291;BME280;39663;45.432;28.050;2022-07-21T02:48:53;101134.65;;;22.92;34.42
52291;BME280;39663;45.432;28.050;2022-07-21T02:49:24;101135.27;;;23.14;34.65
52291;BME280;39663;45.432;28.050;2022-07-21T02:49:55;101134.84;;;22.94;34.96
52291;BME280;39663;45.432;28.050;2022-07-21T02:50:30;101136.33;;;23.43;34.47
52291;BME280;39663;45.432;28.050;2022-07-21T02:51:02;101132.82;;;23.86;33.81
52291;BME280;39663;45.432;28.050;2022-07-21T02:51:33;101132.89;;;23.89;33.77
52291;BME280;39663;45.432;28.050;2022-07-21T02:52:05;101133.15;;;23.78;33.90
52291;BME280;39663;45.432;28.050;2022-07-21T02:52:36;101131.70;;;23.89;33.60
52291;BME280;39663;45.432;28.050;2022-07-21T02:53:09;101134.61;;;23.33;34.21